sensor_id;sensor_type;location;lat;lon;timestamp;temperature;humidity
35894;DHT22;21994;48.204;16.516;2022-07-05T00:00:10;19.40;99.90
35894;DHT22;21994;48.204;16.516;2022-07-05T00:02:37;19.40;99.90
35894;DHT22;21994;48.204;16.516;2022-07-05T00:05:03;19.30;99.90
35894;DHT22;21994;48.204;16.516;2022-07-05T00:07:29;19.30;99.90
35894;DHT22;21994;48.204;16.516;2022-07-05T00:09:56;19.30;99.90
35894;DHT22;21994;48.204;16.516;2022-07-05T00:12:25;19.20;99.90
35894;DHT22;21994;48.204;16.516;2022-07-05T00:14:53;19.20;99.90
35894;DHT22;21994;48.204;16.516;2022-07-05T00:17:19;19.10;99.90
35894;DHT22;21994;48.204;16.516;2022-07-05T00:19:46;19.10;99.90
35894;DHT22;21994;48.204;16.516;2022-07-05T00:22:12;19.00;99.90
35894;DHT22;21994;48.204;16.516;2022-07-05T00:24:38;19.00;99.90
35894;DHT22;21994;48.204;16.516;2022-07-05T00:27:04;19.20;99.90
35894;DHT22;21994;48.204;16.516;2022-07-05T00:29:30;19.10;99.90
35894;DHT22;21994;48.204;16.516;2022-07-05T00:31:56;19.10;99.90
35894;DHT22;21994;48.204;16.516;2022-07-05T00:34:24;19.00;99.90
35894;DHT22;21994;48.204;16.516;2022-07-05T00:36:50;19.00;99.90
35894;DHT22;21994;48.204;16.516;2022-07-05T00:39:16;19.00;99.90
35894;DHT22;21994;48.204;16.516;2022-07-05T00:41:42;19.00;99.90
35894;DHT22;21994;48.204;16.516;2022-07-05T00:44:10;19.00;99.90
35894;DHT22;21994;48.204;16.516;2022-07-05T00:46:37;19.00;99.90
35894;DHT22;21994;48.204;16.516;2022-07-05T00:49:04;19.00;99.90
35894;DHT22;21994;48.204;16.516;2022-07-05T00:51:32;18.90;99.90
35894;DHT22;21994;48.204;16.516;2022-07-05T00:54:01;18.90;99.90
35894;DHT22;21994;48.204;16.516;2022-07-05T00:56:28;18.90;99.90
35894;DHT22;21994;48.204;16.516;2022-07-05T00:58:54;18.90;99.90
35894;DHT22;21994;48.204;16.516;2022-07-05T01:01:20;18.80;99.90
35894;DHT22;21994;48.204;16.516;2022-07-05T01:03:47;18.80;99.90
35894;DHT22;21994;48.204;16.516;2022-07-05T01:06:14;18.70;99.90
35894;DHT22;21994;48.204;16.516;2022-07-05T01:08:41;18.70;99.90
35894;DHT22;21994;48.204;16.516;2022-07-05T01:11:09;18.70;99.90
35894;DHT22;21994;48.204;16.516;2022-07-05T01:13:36;18.70;99.90
35894;DHT22;21994;48.204;16.516;2022-07-05T01:16:02;18.60;99.90
35894;DHT22;21994;48.204;16.516;2022-07-05T01:18:29;18.60;99.90
35894;DHT22;21994;48.204;16.516;2022-07-05T01:20:58;18.70;99.90
35894;DHT22;21994;48.204;16.516;2022-07-05T01:23:29;18.70;99.90
35894;DHT22;21994;48.204;16.516;2022-07-05T01:25:57;18.70;99.90
35894;DHT22;21994;48.204;16.516;2022-07-05T01:28:24;18.80;99.90
35894;DHT22;21994;48.204;16.516;2022-07-05T01:30:51;18.80;99.90
35894;DHT22;21994;48.204;16.516;2022-07-05T01:33:17;18.80;99.90
35894;DHT22;21994;48.204;16.516;2022-07-05T01:35:43;18.80;99.90
35894;DHT22;21994;48.204;16.516;2022-07-05T01:38:11;18.80;99.90
35894;DHT22;21994;48.204;16.516;2022-07-05T01:40:38;18.80;99.90
35894;DHT22;21994;48.204;16.516;2022-07-05T01:43:04;18.80;99.90
35894;DHT22;21994;48.204;16.516;2022-07-05T01:45:30;18.80;99.90
35894;DHT22;21994;48.204;16.516;2022-07-05T01:48:15;18.90;99.90
35894;DHT22;21994;48.204;16.516;2022-07-05T01:50:54;18.90;99.90
35894;DHT22;21994;48.204;16.516;2022-07-05T01:53:28;19.00;99.90
35894;DHT22;21994;48.204;16.516;2022-07-05T01:55:57;19.00;99.90
35894;DHT22;21994;48.204;16.516;2022-07-05T01:58:28;19.10;99.90
35894;DHT22;21994;48.204;16.516;2022-07-05T02:00:55;19.10;99.90
35894;DHT22;21994;48.204;16.516;2022-07-05T02:03:22;19.20;99.90
35894;DHT22;21994;48.204;16.516;2022-07-05T02:05:48;19.10;99.90
35894;DHT22;21994;48.204;16.516;2022-07-05T02:08:16;19.10;99.90
35894;DHT22;21994;48.204;16.516;2022-07-05T02:10:43;19.10;99.90
35894;DHT22;21994;48.204;16.516;2022-07-05T02:13:10;19.10;99.90
35894;DHT22;21994;48.204;16.516;2022-07-05T02:15:39;19.00;99.90
35894;DHT22;21994;48.204;16.516;2022-07-05T02:18:07;18.80;99.90
35894;DHT22;21994;48.204;16.516;2022-07-05T02:20:35;18.70;99.90
35894;DHT22;21994;48.204;16.516;2022-07-05T02:23:03;18.70;99.90
35894;DHT22;21994;48.204;16.516;2022-07-05T02:25:29;18.70;99.90
35894;DHT22;21994;48.204;16.516;2022-07-05T02:27:55;18.70;99.90
35894;DHT22;21994;48.204;16.516;2022-07-05T02:30:21;18.60;99.90
35894;DHT22;21994;48.204;16.516;2022-07-05T02:32:47;18.50;99.90
35894;DHT22;21994;48.204;16.516;2022-07-05T02:35:14;18.50;99.90
35894;DHT22;21994;48.204;16.516;2022-07-05T02:37:40;18.60;99.90
35894;DHT22;21994;48.204;16.516;2022-07-05T02:40:07;18.50;99.90
35894;DHT22;21994;48.204;16.516;2022-07-05T02:42:37;18.50;99.90
35894;DHT22;21994;48.204;16.516;2022-07-05T02:45:04;18.50;99.90
35894;DHT22;21994;48.204;16.516;2022-07-05T02:47:31;18.50;99.90
35894;DHT22;21994;48.204;16.516;2022-07-05T02:49:58;18.50;99.90
35894;DHT22;21994;48.204;16.516;2022-07-05T02:52:28;18.50;99.90
35894;DHT22;21994;48.204;16.516;2022-07-05T02:54:54;18.50;99.90
35894;DHT22;21994;48.204;16.516;2022-07-05T02:57:20;18.50;99.90
35894;DHT22;21994;48.204;16.516;2022-07-05T02:59:46;18.50;99.90
35894;DHT22;21994;48.204;16.516;2022-07-05T03:02:11;18.50;99.90
35894;DHT22;21994;48.204;16.516;2022-07-05T03:04:37;18.50;99.90
35894;DHT22;21994;48.204;16.516;2022-07-05T03:07:03;18.50;99.90
35894;DHT22;21994;48.204;16.516;2022-07-05T03:09:29;18.50;99.90
35894;DHT22;21994;48.204;16.516;2022-07-05T03:11:55;18.50;99.90
35894;DHT22;21994;48.204;16.516;2022-07-05T03:14:21;18.50;99.90
35894;DHT22;21994;48.204;16.516;2022-07-05T03:16:47;18.50;99.90
35894;DHT22;21994;48.204;16.516;2022-07-05T03:19:13;18.50;99.90
35894;DHT22;21994;48.204;16.516;2022-07-05T03:21:39;18.50;99.90
35894;DHT22;21994;48.204;16.516;2022-07-05T03:24:05;18.50;99.90
35894;DHT22;21994;48.204;16.516;2022-07-05T03:26:31;18.60;99.90
35894;DHT22;21994;48.204;16.516;2022-07-05T03:28:56;18.60;99.90
35894;DHT22;21994;48.204;16.516;2022-07-05T03:31:22;18.60;99.90
35894;DHT22;21994;48.204;16.516;2022-07-05T03:33:48;18.60;99.90
35894;DHT22;21994;48.204;16.516;2022-07-05T03:36:14;18.60;99.90
35894;DHT22;21994;48.204;16.516;2022-07-05T03:38:40;18.60;99.90
35894;DHT22;21994;48.204;16.516;2022-07-05T03:41:06;18.70;99.90
35894;DHT22;21994;48.204;16.516;2022-07-05T03:43:32;18.80;99.90
35894;DHT22;21994;48.204;16.516;2022-07-05T03:45:58;18.80;99.90
35894;DHT22;21994;48.204;16.516;2022-07-05T03:48:24;18.80;99.90
35894;DHT22;21994;48.204;16.516;2022-07-05T03:50:50;18.80;99.90
35894;DHT22;21994;48.204;16.516;2022-07-05T03:53:16;18.90;99.90
35894;DHT22;21994;48.204;16.516;2022-07-05T03:55:42;18.90;99.90
35894;DHT22;21994;48.204;16.516;2022-07-05T03:58:09;18.90;99.90
35894;DHT22;21994;48.204;16.516;2022-07-05T04:00:34;19.10;99.90
35894;DHT22;21994;48.204;16.516;2022-07-05T04:03:01;19.20;99.90
35894;DHT22;21994;48.204;16.516;2022-07-05T04:05:27;19.30;99.90
35894;DHT22;21994;48.204;16.516;2022-07-05T04:07:54;19.40;99.90
35894;DHT22;21994;48.204;16.516;2022-07-05T04:10:21;19.50;99.90
35894;DHT22;21994;48.204;16.516;2022-07-05T04:12:47;19.70;99.90
35894;DHT22;21994;48.204;16.516;2022-07-05T04:15:14;19.70;99.90
35894;DHT22;21994;48.204;16.516;2022-07-05T04:17:53;19.80;99.90
35894;DHT22;21994;48.204;16.516;2022-07-05T04:20:20;19.90;99.90
35894;DHT22;21994;48.204;16.516;2022-07-05T04:22:48;19.80;99.90
35894;DHT22;21994;48.204;16.516;2022-07-05T04:25:15;19.90;99.90
35894;DHT22;21994;48.204;16.516;2022-07-05T04:27:52;20.10;99.90
35894;DHT22;21994;48.204;16.516;2022-07-05T04:30:20;20.10;99.90
35894;DHT22;21994;48.204;16.516;2022-07-05T04:32:48;20.20;99.90
35894;DHT22;21994;48.204;16.516;2022-07-05T04:35:15;20.20;99.90
35894;DHT22;21994;48.204;16.516;2022-07-05T04:37:42;20.30;99.90
35894;DHT22;21994;48.204;16.516;2022-07-05T04:40:10;20.30;99.90
35894;DHT22;21994;48.204;16.516;2022-07-05T04:42:38;20.30;99.90
35894;DHT22;21994;48.204;16.516;2022-07-05T04:45:04;20.30;99.90
35894;DHT22;21994;48.204;16.516;2022-07-05T04:47:31;20.30;99.90
35894;DHT22;21994;48.204;16.516;2022-07-05T04:50:06;20.20;99.90
35894;DHT22;21994;48.204;16.516;2022-07-05T04:52:33;20.20;99.90
35894;DHT22;21994;48.204;16.516;2022-07-05T04:54:59;20.20;99.90
35894;DHT22;21994;48.204;16.516;2022-07-05T04:57:25;20.30;99.90
35894;DHT22;21994;48.204;16.516;2022-07-05T04:59:51;20.40;99.90
35894;DHT22;21994;48.204;16.516;2022-07-05T05:02:17;20.40;99.90
35894;DHT22;21994;48.204;16.516;2022-07-05T05:04:43;20.40;99.90
35894;DHT22;21994;48.204;16.516;2022-07-05T05:07:09;20.40;99.90
35894;DHT22;21994;48.204;16.516;2022-07-05T05:09:35;20.50;99.90
35894;DHT22;21994;48.204;16.516;2022-07-05T05:12:02;20.50;99.90
35894;DHT22;21994;48.204;16.516;2022-07-05T05:14:28;20.40;99.90
35894;DHT22;21994;48.204;16.516;2022-07-05T05:16:53;20.50;99.90
35894;DHT22;21994;48.204;16.516;2022-07-05T05:19:19;20.50;99.90
35894;DHT22;21994;48.204;16.516;2022-07-05T05:21:46;20.50;99.90
35894;DHT22;21994;48.204;16.516;2022-07-05T05:24:11;20.60;99.90
35894;DHT22;21994;48.204;16.516;2022-07-05T05:26:38;20.70;99.90
35894;DHT22;21994;48.204;16.516;2022-07-05T05:29:03;20.60;99.90
35894;DHT22;21994;48.204;16.516;2022-07-05T05:31:29;20.70;99.90
35894;DHT22;21994;48.204;16.516;2022-07-05T05:33:55;20.60;99.90
35894;DHT22;21994;48.204;16.516;2022-07-05T05:36:21;20.60;99.90
35894;DHT22;21994;48.204;16.516;2022-07-05T05:38:47;20.70;99.90
35894;DHT22;21994;48.204;16.516;2022-07-05T05:41:12;20.70;99.90
35894;DHT22;21994;48.204;16.516;2022-07-05T05:43:38;20.70;99.90
35894;DHT22;21994;48.204;16.516;2022-07-05T05:46:05;20.60;99.90
35894;DHT22;21994;48.204;16.516;2022-07-05T05:48:31;20.60;99.90
35894;DHT22;21994;48.204;16.516;2022-07-05T05:50:57;20.60;99.90
35894;DHT22;21994;48.204;16.516;2022-07-05T05:53:22;20.60;99.90
35894;DHT22;21994;48.204;16.516;2022-07-05T05:55:48;20.60;99.90
35894;DHT22;21994;48.204;16.516;2022-07-05T05:58:21;20.60;99.90
35894;DHT22;21994;48.204;16.516;2022-07-05T06:00:49;20.50;99.90
35894;DHT22;21994;48.204;16.516;2022-07-05T06:03:26;20.50;99.90
35894;DHT22;21994;48.204;16.516;2022-07-05T06:05:53;20.50;99.90
35894;DHT22;21994;48.204;16.516;2022-07-05T06:08:19;20.50;99.90
35894;DHT22;21994;48.204;16.516;2022-07-05T06:10:46;20.40;99.90
35894;DHT22;21994;48.204;16.516;2022-07-05T06:13:13;20.30;99.90
35894;DHT22;21994;48.204;16.516;2022-07-05T06:15:40;20.30;99.90
35894;DHT22;21994;48.204;16.516;2022-07-05T06:18:08;20.30;99.90
35894;DHT22;21994;48.204;16.516;2022-07-05T06:20:36;20.40;99.90
35894;DHT22;21994;48.204;16.516;2022-07-05T06:23:04;20.50;99.90
35894;DHT22;21994;48.204;16.516;2022-07-05T06:25:31;20.40;99.90
35894;DHT22;21994;48.204;16.516;2022-07-05T06:28:03;20.40;99.90
35894;DHT22;21994;48.204;16.516;2022-07-05T06:30:32;20.50;99.90
35894;DHT22;21994;48.204;16.516;2022-07-05T06:33:00;20.50;99.90
35894;DHT22;21994;48.204;16.516;2022-07-05T06:35:26;20.50;99.90
35894;DHT22;21994;48.204;16.516;2022-07-05T06:38:03;20.50;99.90
35894;DHT22;21994;48.204;16.516;2022-07-05T06:40:40;20.40;99.90
35894;DHT22;21994;48.204;16.516;2022-07-05T06:43:11;20.30;99.90
35894;DHT22;21994;48.204;16.516;2022-07-05T06:45:38;20.30;99.90
35894;DHT22;21994;48.204;16.516;2022-07-05T06:48:06;20.20;99.90
35894;DHT22;21994;48.204;16.516;2022-07-05T06:50:38;20.30;99.90
35894;DHT22;21994;48.204;16.516;2022-07-05T06:53:06;20.20;99.90
35894;DHT22;21994;48.204;16.516;2022-07-05T06:55:32;20.20;99.90
35894;DHT22;21994;48.204;16.516;2022-07-05T06:58:06;20.20;99.90
35894;DHT22;21994;48.204;16.516;2022-07-05T07:00:33;20.20;99.90
35894;DHT22;21994;48.204;16.516;2022-07-05T07:03:00;20.20;99.90
35894;DHT22;21994;48.204;16.516;2022-07-05T07:05:26;20.20;99.90
35894;DHT22;21994;48.204;16.516;2022-07-05T07:07:53;20.20;99.90
35894;DHT22;21994;48.204;16.516;2022-07-05T07:10:37;20.10;99.90
35894;DHT22;21994;48.204;16.516;2022-07-05T07:13:04;20.10;99.90
35894;DHT22;21994;48.204;16.516;2022-07-05T07:15:30;20.30;99.90
35894;DHT22;21994;48.204;16.516;2022-07-05T07:17:59;20.20;99.90
35894;DHT22;21994;48.204;16.516;2022-07-05T07:20:25;20.20;99.90
35894;DHT22;21994;48.204;16.516;2022-07-05T07:22:52;20.40;99.90
35894;DHT22;21994;48.204;16.516;2022-07-05T07:25:18;20.30;99.90
35894;DHT22;21994;48.204;16.516;2022-07-05T07:27:47;20.30;99.90
35894;DHT22;21994;48.204;16.516;2022-07-05T07:30:16;20.30;99.90
35894;DHT22;21994;48.204;16.516;2022-07-05T07:32:44;20.40;99.90
35894;DHT22;21994;48.204;16.516;2022-07-05T07:35:11;20.50;99.90
35894;DHT22;21994;48.204;16.516;2022-07-05T07:37:37;20.50;99.90
35894;DHT22;21994;48.204;16.516;2022-07-05T07:40:04;20.50;99.90
35894;DHT22;21994;48.204;16.516;2022-07-05T07:42:31;20.60;99.90
35894;DHT22;21994;48.204;16.516;2022-07-05T07:44:57;20.80;99.90
35894;DHT22;21994;48.204;16.516;2022-07-05T07:47:23;20.80;99.90
35894;DHT22;21994;48.204;16.516;2022-07-05T07:49:49;20.90;99.90
35894;DHT22;21994;48.204;16.516;2022-07-05T07:52:15;21.00;99.90
35894;DHT22;21994;48.204;16.516;2022-07-05T07:54:41;21.10;99.90
35894;DHT22;21994;48.204;16.516;2022-07-05T07:57:07;21.10;99.90
35894;DHT22;21994;48.204;16.516;2022-07-05T07:59:34;21.20;99.90
35894;DHT22;21994;48.204;16.516;2022-07-05T08:02:00;21.30;99.90
35894;DHT22;21994;48.204;16.516;2022-07-05T08:04:26;21.40;99.90
35894;DHT22;21994;48.204;16.516;2022-07-05T08:06:52;21.50;99.90
35894;DHT22;21994;48.204;16.516;2022-07-05T08:09:18;21.60;99.90
35894;DHT22;21994;48.204;16.516;2022-07-05T08:11:47;21.70;99.90
35894;DHT22;21994;48.204;16.516;2022-07-05T08:14:17;21.80;99.90
35894;DHT22;21994;48.204;16.516;2022-07-05T08:16:46;21.90;99.90
35894;DHT22;21994;48.204;16.516;2022-07-05T08:19:13;22.10;99.90
35894;DHT22;21994;48.204;16.516;2022-07-05T08:21:57;22.20;99.90
35894;DHT22;21994;48.204;16.516;2022-07-05T08:24:23;22.30;99.90
35894;DHT22;21994;48.204;16.516;2022-07-05T08:26:49;22.40;99.90
35894;DHT22;21994;48.204;16.516;2022-07-05T08:29:15;22.30;99.90
35894;DHT22;21994;48.204;16.516;2022-07-05T08:31:46;22.30;99.90
35894;DHT22;21994;48.204;16.516;2022-07-05T08:34:15;22.30;99.90
35894;DHT22;21994;48.204;16.516;2022-07-05T08:36:44;22.30;99.90
35894;DHT22;21994;48.204;16.516;2022-07-05T08:39:10;22.20;99.90
35894;DHT22;21994;48.204;16.516;2022-07-05T08:41:38;22.10;99.90
35894;DHT22;21994;48.204;16.516;2022-07-05T08:44:07;22.00;99.90
35894;DHT22;21994;48.204;16.516;2022-07-05T08:46:38;22.00;99.90
35894;DHT22;21994;48.204;16.516;2022-07-05T08:49:05;21.80;99.90
35894;DHT22;21994;48.204;16.516;2022-07-05T08:51:34;21.70;99.90
35894;DHT22;21994;48.204;16.516;2022-07-05T08:54:04;21.80;99.90
35894;DHT22;21994;48.204;16.516;2022-07-05T08:56:30;21.80;99.90
35894;DHT22;21994;48.204;16.516;2022-07-05T08:58:57;21.70;99.90
35894;DHT22;21994;48.204;16.516;2022-07-05T09:01:25;21.60;99.90
35894;DHT22;21994;48.204;16.516;2022-07-05T09:03:51;21.70;99.90
35894;DHT22;21994;48.204;16.516;2022-07-05T09:06:20;21.80;99.90
35894;DHT22;21994;48.204;16.516;2022-07-05T09:08:49;21.70;99.90
35894;DHT22;21994;48.204;16.516;2022-07-05T09:11:18;21.80;99.90
35894;DHT22;21994;48.204;16.516;2022-07-05T09:13:54;22.00;99.90
35894;DHT22;21994;48.204;16.516;2022-07-05T09:16:20;21.90;99.90
35894;DHT22;21994;48.204;16.516;2022-07-05T09:21:27;21.70;99.90
35894;DHT22;21994;48.204;16.516;2022-07-05T09:26:46;21.80;99.90
35894;DHT22;21994;48.204;16.516;2022-07-05T09:29:19;21.70;99.90
35894;DHT22;21994;48.204;16.516;2022-07-05T09:31:47;21.50;99.90
35894;DHT22;21994;48.204;16.516;2022-07-05T09:34:21;21.50;99.90
35894;DHT22;21994;48.204;16.516;2022-07-05T09:36:55;21.60;99.90
35894;DHT22;21994;48.204;16.516;2022-07-05T09:42:19;21.30;99.90
35894;DHT22;21994;48.204;16.516;2022-07-05T09:44:56;21.30;99.90
35894;DHT22;21994;48.204;16.516;2022-07-05T09:47:31;21.10;99.90
35894;DHT22;21994;48.204;16.516;2022-07-05T09:49:58;21.20;99.90
35894;DHT22;21994;48.204;16.516;2022-07-05T09:52:34;21.40;99.90
35894;DHT22;21994;48.204;16.516;2022-07-05T09:57:28;21.00;99.90
35894;DHT22;21994;48.204;16.516;2022-07-05T10:00:01;20.90;99.90
35894;DHT22;21994;48.204;16.516;2022-07-05T10:07:41;21.10;99.90
35894;DHT22;21994;48.204;16.516;2022-07-05T10:10:12;21.30;99.90
35894;DHT22;21994;48.204;16.516;2022-07-05T10:12:40;21.50;99.90
35894;DHT22;21994;48.204;16.516;2022-07-05T10:15:10;21.70;99.90
35894;DHT22;21994;48.204;16.516;2022-07-05T10:17:40;22.00;99.90
35894;DHT22;21994;48.204;16.516;2022-07-05T10:20:19;21.90;99.90
35894;DHT22;21994;48.204;16.516;2022-07-05T10:22:49;22.00;99.90
35894;DHT22;21994;48.204;16.516;2022-07-05T10:25:15;21.80;99.90
35894;DHT22;21994;48.204;16.516;2022-07-05T10:27:42;21.70;99.90
35894;DHT22;21994;48.204;16.516;2022-07-05T10:30:10;21.70;99.90
35894;DHT22;21994;48.204;16.516;2022-07-05T10:32:39;21.70;99.90
35894;DHT22;21994;48.204;16.516;2022-07-05T10:35:06;21.40;99.90
35894;DHT22;21994;48.204;16.516;2022-07-05T10:37:33;21.20;99.90
35894;DHT22;21994;48.204;16.516;2022-07-05T10:40:02;21.10;99.90
35894;DHT22;21994;48.204;16.516;2022-07-05T10:42:56;21.10;99.90
35894;DHT22;21994;48.204;16.516;2022-07-05T10:48:22;21.20;99.90
35894;DHT22;21994;48.204;16.516;2022-07-05T10:50:55;21.40;99.90
35894;DHT22;21994;48.204;16.516;2022-07-05T10:56:12;21.60;99.90
35894;DHT22;21994;48.204;16.516;2022-07-05T11:06:25;21.30;99.90
35894;DHT22;21994;48.204;16.516;2022-07-05T11:11:31;21.20;99.90
35894;DHT22;21994;48.204;16.516;2022-07-05T11:14:03;21.00;99.90
35894;DHT22;21994;48.204;16.516;2022-07-05T11:16:32;21.10;99.90
35894;DHT22;21994;48.204;16.516;2022-07-05T11:19:13;21.20;99.90
35894;DHT22;21994;48.204;16.516;2022-07-05T11:22:04;21.20;99.90
35894;DHT22;21994;48.204;16.516;2022-07-05T11:24:36;21.10;99.90
35894;DHT22;21994;48.204;16.516;2022-07-05T11:27:09;21.10;99.90
35894;DHT22;21994;48.204;16.516;2022-07-05T11:32:13;20.90;99.90
35894;DHT22;21994;48.204;16.516;2022-07-05T11:34:40;21.00;99.90
35894;DHT22;21994;48.204;16.516;2022-07-05T11:39:43;21.00;99.90
35894;DHT22;21994;48.204;16.516;2022-07-05T11:42:10;21.20;99.90
35894;DHT22;21994;48.204;16.516;2022-07-05T11:44:37;21.30;99.90
35894;DHT22;21994;48.204;16.516;2022-07-05T11:47:06;21.40;99.90
35894;DHT22;21994;48.204;16.516;2022-07-05T11:49:32;21.40;99.90
35894;DHT22;21994;48.204;16.516;2022-07-05T11:52:00;21.40;99.90
35894;DHT22;21994;48.204;16.516;2022-07-05T11:54:28;21.40;99.90
35894;DHT22;21994;48.204;16.516;2022-07-05T11:56:55;21.50;99.90
35894;DHT22;21994;48.204;16.516;2022-07-05T11:59:23;21.60;99.90
35894;DHT22;21994;48.204;16.516;2022-07-05T12:01:50;21.50;99.90
35894;DHT22;21994;48.204;16.516;2022-07-05T12:04:29;21.50;99.90
35894;DHT22;21994;48.204;16.516;2022-07-05T12:06:56;21.60;99.90
35894;DHT22;21994;48.204;16.516;2022-07-05T12:09:32;21.50;99.90
35894;DHT22;21994;48.204;16.516;2022-07-05T12:12:21;21.70;99.90
35894;DHT22;21994;48.204;16.516;2022-07-05T12:15:15;21.80;99.90
35894;DHT22;21994;48.204;16.516;2022-07-05T12:17:49;22.00;99.90
35894;DHT22;21994;48.204;16.516;2022-07-05T12:20:24;22.10;99.90
35894;DHT22;21994;48.204;16.516;2022-07-05T12:22:51;22.00;99.90
35894;DHT22;21994;48.204;16.516;2022-07-05T12:25:19;21.80;99.90
35894;DHT22;21994;48.204;16.516;2022-07-05T12:27:47;21.90;99.90
35894;DHT22;21994;48.204;16.516;2022-07-05T12:30:16;21.80;99.90
35894;DHT22;21994;48.204;16.516;2022-07-05T12:33:01;21.60;99.90
35894;DHT22;21994;48.204;16.516;2022-07-05T12:35:43;21.50;99.90
35894;DHT22;21994;48.204;16.516;2022-07-05T12:38:11;21.60;99.90
35894;DHT22;21994;48.204;16.516;2022-07-05T12:40:41;21.70;99.90
35894;DHT22;21994;48.204;16.516;2022-07-05T12:43:16;21.80;99.90
35894;DHT22;21994;48.204;16.516;2022-07-05T12:46:03;22.00;99.90
35894;DHT22;21994;48.204;16.516;2022-07-05T12:48:37;22.20;99.90
35894;DHT22;21994;48.204;16.516;2022-07-05T12:51:05;22.10;99.90
35894;DHT22;21994;48.204;16.516;2022-07-05T12:53:32;22.10;99.90
35894;DHT22;21994;48.204;16.516;2022-07-05T12:56:22;22.10;99.90
35894;DHT22;21994;48.204;16.516;2022-07-05T12:59:09;22.10;99.90
35894;DHT22;21994;48.204;16.516;2022-07-05T13:01:43;22.20;99.90
35894;DHT22;21994;48.204;16.516;2022-07-05T13:04:14;22.50;99.90
35894;DHT22;21994;48.204;16.516;2022-07-05T13:14:53;22.10;99.90
35894;DHT22;21994;48.204;16.516;2022-07-05T13:17:20;22.00;99.90
35894;DHT22;21994;48.204;16.516;2022-07-05T13:19:49;21.90;99.90
35894;DHT22;21994;48.204;16.516;2022-07-05T13:22:16;22.00;99.90
35894;DHT22;21994;48.204;16.516;2022-07-05T13:24:43;22.20;99.90
35894;DHT22;21994;48.204;16.516;2022-07-05T13:27:10;22.30;99.90
35894;DHT22;21994;48.204;16.516;2022-07-05T13:29:37;22.60;99.90
35894;DHT22;21994;48.204;16.516;2022-07-05T13:32:04;22.80;99.90
35894;DHT22;21994;48.204;16.516;2022-07-05T13:34:30;22.90;99.90
35894;DHT22;21994;48.204;16.516;2022-07-05T13:36:58;23.00;99.90
35894;DHT22;21994;48.204;16.516;2022-07-05T13:39:25;23.20;99.90
35894;DHT22;21994;48.204;16.516;2022-07-05T13:41:52;23.50;99.90
35894;DHT22;21994;48.204;16.516;2022-07-05T13:44:20;23.80;99.90
35894;DHT22;21994;48.204;16.516;2022-07-05T13:46:46;23.90;99.90
35894;DHT22;21994;48.204;16.516;2022-07-05T13:49:13;23.70;99.90
35894;DHT22;21994;48.204;16.516;2022-07-05T13:51:39;23.60;99.90
35894;DHT22;21994;48.204;16.516;2022-07-05T13:54:05;23.40;99.90
35894;DHT22;21994;48.204;16.516;2022-07-05T13:56:31;23.40;99.90
35894;DHT22;21994;48.204;16.516;2022-07-05T13:58:58;23.30;99.90
35894;DHT22;21994;48.204;16.516;2022-07-05T14:01:24;23.40;99.90
35894;DHT22;21994;48.204;16.516;2022-07-05T14:03:56;23.20;99.90
35894;DHT22;21994;48.204;16.516;2022-07-05T14:06:23;23.00;99.90
35894;DHT22;21994;48.204;16.516;2022-07-05T14:08:48;22.70;99.90
35894;DHT22;21994;48.204;16.516;2022-07-05T14:11:14;22.50;99.90
35894;DHT22;21994;48.204;16.516;2022-07-05T14:13:40;22.40;99.90
35894;DHT22;21994;48.204;16.516;2022-07-05T14:16:07;22.40;99.90
35894;DHT22;21994;48.204;16.516;2022-07-05T14:18:33;22.30;99.90
35894;DHT22;21994;48.204;16.516;2022-07-05T14:20:59;22.30;99.90
35894;DHT22;21994;48.204;16.516;2022-07-05T14:23:25;22.30;99.90
35894;DHT22;21994;48.204;16.516;2022-07-05T14:25:51;22.30;99.90
35894;DHT22;21994;48.204;16.516;2022-07-05T14:28:17;22.20;99.90
35894;DHT22;21994;48.204;16.516;2022-07-05T14:30:45;22.10;99.90
35894;DHT22;21994;48.204;16.516;2022-07-05T14:33:13;22.10;99.90
35894;DHT22;21994;48.204;16.516;2022-07-05T14:35:40;22.00;99.90
35894;DHT22;21994;48.204;16.516;2022-07-05T14:38:07;22.10;99.90
35894;DHT22;21994;48.204;16.516;2022-07-05T14:40:33;22.10;99.90
35894;DHT22;21994;48.204;16.516;2022-07-05T14:43:00;21.90;99.90
35894;DHT22;21994;48.204;16.516;2022-07-05T14:45:27;21.90;99.90
35894;DHT22;21994;48.204;16.516;2022-07-05T14:47:54;22.00;99.90
35894;DHT22;21994;48.204;16.516;2022-07-05T14:50:20;22.00;99.90
35894;DHT22;21994;48.204;16.516;2022-07-05T14:52:47;21.90;99.90
35894;DHT22;21994;48.204;16.516;2022-07-05T14:55:14;22.00;99.90
35894;DHT22;21994;48.204;16.516;2022-07-05T14:57:40;22.00;99.90
35894;DHT22;21994;48.204;16.516;2022-07-05T15:00:09;22.00;99.90
35894;DHT22;21994;48.204;16.516;2022-07-05T15:02:37;22.10;99.90
35894;DHT22;21994;48.204;16.516;2022-07-05T15:05:04;22.10;99.90
35894;DHT22;21994;48.204;16.516;2022-07-05T15:07:31;22.10;99.90
35894;DHT22;21994;48.204;16.516;2022-07-05T15:09:57;22.20;99.90
35894;DHT22;21994;48.204;16.516;2022-07-05T15:12:23;22.30;99.90
35894;DHT22;21994;48.204;16.516;2022-07-05T15:14:49;22.30;99.90
35894;DHT22;21994;48.204;16.516;2022-07-05T15:17:15;22.50;99.90
35894;DHT22;21994;48.204;16.516;2022-07-05T15:19:41;22.60;99.90
35894;DHT22;21994;48.204;16.516;2022-07-05T15:22:07;22.70;99.90
35894;DHT22;21994;48.204;16.516;2022-07-05T15:24:34;22.90;99.90
35894;DHT22;21994;48.204;16.516;2022-07-05T15:27:00;23.00;99.90
35894;DHT22;21994;48.204;16.516;2022-07-05T15:29:26;22.90;99.90
35894;DHT22;21994;48.204;16.516;2022-07-05T15:31:54;23.10;99.90
35894;DHT22;21994;48.204;16.516;2022-07-05T15:34:20;23.30;99.90
35894;DHT22;21994;48.204;16.516;2022-07-05T15:36:46;23.40;99.90
35894;DHT22;21994;48.204;16.516;2022-07-05T15:39:12;23.20;99.90
35894;DHT22;21994;48.204;16.516;2022-07-05T15:41:38;23.10;99.90
35894;DHT22;21994;48.204;16.516;2022-07-05T15:44:04;23.10;99.90
35894;DHT22;21994;48.204;16.516;2022-07-05T15:46:30;23.20;99.90
35894;DHT22;21994;48.204;16.516;2022-07-05T15:49:16;23.10;99.90
35894;DHT22;21994;48.204;16.516;2022-07-05T15:51:42;23.10;99.90
35894;DHT22;21994;48.204;16.516;2022-07-05T15:54:08;23.10;99.90
35894;DHT22;21994;48.204;16.516;2022-07-05T15:56:34;23.00;99.90
35894;DHT22;21994;48.204;16.516;2022-07-05T15:59:00;22.90;99.90
35894;DHT22;21994;48.204;16.516;2022-07-05T16:01:26;22.90;99.90
35894;DHT22;21994;48.204;16.516;2022-07-05T16:03:52;22.80;99.90
35894;DHT22;21994;48.204;16.516;2022-07-05T16:06:18;22.80;99.90